Time;durP1;ratioP1;P1;durP2;ratioP2;P2;SDS_P1;SDS_P2;PMS_P1;PMS_P2;Temp;Humidity;BMP_temperature;BMP_pressure;BME280_temperature;BME280_humidity;BME280_pressure;Samples;Min_cycle;Max_cycle;Signal;HPM_P1;HPM_P2
2023/12/15 00:00:34;;;;;;;19.52;9.32;;;;;;;9.74;64.83;102658.31;4751938;29;123415;-72
2023/12/15 00:03:02;;;;;;;16.10;8.90;;;;;;;9.76;64.90;102663.59;4737827;29;118535;-71
2023/12/15 00:05:29;;;;;;;15.38;9.07;;;;;;;9.76;65.05;102655.66;4753013;29;118878;-72
2023/12/15 00:07:56;;;;;;;18.17;9.25;;;;;;;9.77;65.26;102662.69;4773083;29;122586;-72
2023/12/15 00:10:24;;;;;;;18.67;9.70;;;;;;;9.79;65.11;102667.97;4774632;29;124605;-72
2023/12/15 00:12:51;;;;;;;18.73;8.73;;;;;;;9.78;65.09;102664.44;4754710;29;119991;-72
2023/12/15 00:15:18;;;;;;;16.70;9.50;;;;;;;9.80;65.11;102678.53;4739260;29;120602;-72
2023/12/15 00:17:45;;;;;;;21.25;9.15;;;;;;;9.81;64.99;102688.19;4773834;29;124131;-72
2023/12/15 00:20:13;;;;;;;16.67;8.68;;;;;;;9.83;65.31;102694.38;4756384;29;124229;-72
2023/12/15 00:22:40;;;;;;;19.20;9.57;;;;;;;9.84;65.04;102696.13;4753895;29;120056;-72
2023/12/15 00:25:07;;;;;;;16.77;8.63;;;;;;;9.86;65.25;102704.91;4768662;29;118206;-72
2023/12/15 00:27:34;;;;;;;17.27;9.15;;;;;;;9.87;65.01;102711.97;4756132;29;125190;-72
2023/12/15 00:30:03;;;;;;;15.73;8.77;;;;;;;9.90;65.10;102716.34;4773932;29;124122;-72
2023/12/15 00:32:30;;;;;;;14.80;8.50;;;;;;;9.92;64.90;102720.69;4776521;29;120089;-72
2023/12/15 00:34:57;;;;;;;17.67;8.88;;;;;;;9.92;65.28;102718.06;4752350;29;119298;-72
2023/12/15 00:37:27;;;;;;;16.20;9.38;;;;;;;9.93;65.18;102701.28;4762241;29;124785;-72
2023/12/15 00:39:54;;;;;;;17.02;9.55;;;;;;;9.96;65.36;102704.81;4775346;29;123113;-72
2023/12/15 00:42:21;;;;;;;17.50;9.32;;;;;;;9.96;65.17;102705.66;4764073;29;119165;-72
2023/12/15 00:44:48;;;;;;;19.30;9.05;;;;;;;9.99;65.44;102718.88;4778249;29;118493;-72
2023/12/15 00:47:16;;;;;;;18.60;9.90;;;;;;;10.00;65.15;102711.78;4756311;29;123728;-72
2023/12/15 00:49:43;;;;;;;17.92;10.00;;;;;;;10.02;65.29;102710.00;4776176;29;124226;-72
2023/12/15 00:52:11;;;;;;;19.85;9.60;;;;;;;10.02;65.26;102715.31;4763224;29;119916;-72
2023/12/15 00:54:38;;;;;;;17.13;9.90;;;;;;;10.02;65.37;102710.00;4763438;29;119099;-72
2023/12/15 00:57:05;;;;;;;22.02;10.65;;;;;;;10.03;65.47;102711.78;4771608;29;124166;-72
2023/12/15 00:59:32;;;;;;;22.75;11.10;;;;;;;10.03;65.48;102706.47;4778674;29;123857;-72
2023/12/15 01:02:00;;;;;;;17.90;10.65;;;;;;;10.03;65.57;102706.47;4762245;29;120624;-72
2023/12/15 01:04:27;;;;;;;18.77;11.32;;;;;;;10.03;65.55;102698.53;4747739;29;121468;-72
2023/12/15 01:06:54;;;;;;;19.45;11.35;;;;;;;10.03;65.66;102702.06;4761233;29;125361;-72
2023/12/15 01:09:21;;;;;;;21.48;11.27;;;;;;;10.05;65.70;102713.50;4756716;29;124035;-72
2023/12/15 01:11:49;;;;;;;19.73;11.20;;;;;;;10.06;65.62;102722.34;4758996;29;119508;-72
2023/12/15 01:14:16;;;;;;;20.10;11.25;;;;;;;10.07;65.52;102718.78;4758695;29;120895;-72
2023/12/15 01:16:46;;;;;;;20.45;11.65;;;;;;;10.08;65.63;102731.13;4750136;29;123670;-72
2023/12/15 01:19:13;;;;;;;20.00;11.48;;;;;;;10.08;65.69;102736.44;4770955;29;126541;-72
2023/12/15 01:21:41;;;;;;;24.13;11.80;;;;;;;10.09;65.69;102730.22;4773286;29;119225;-72
2023/12/15 01:24:08;;;;;;;24.98;12.07;;;;;;;10.10;65.67;102739.94;4777202;29;119433;-72
2023/12/15 01:26:35;;;;;;;22.63;12.35;;;;;;;10.11;65.95;102741.66;4774822;29;124449;-72
2023/12/15 01:29:02;;;;;;;21.77;12.75;;;;;;;10.11;65.81;102741.66;4744381;29;125082;-72
2023/12/15 01:31:31;;;;;;;24.25;12.38;;;;;;;10.12;65.92;102740.78;4775856;29;119913;-72
2023/12/15 01:33:58;;;;;;;25.85;13.30;;;;;;;10.12;65.97;102749.59;4761848;29;118286;-72
2023/12/15 01:36:28;;;;;;;25.80;12.43;;;;;;;10.12;65.78;102749.59;4773852;29;123796;-71
2023/12/15 01:38:56;;;;;;;23.48;13.05;;;;;;;10.14;65.87;102752.22;4773229;29;124085;-73
2023/12/15 01:41:23;;;;;;;26.33;13.88;;;;;;;10.14;65.84;102757.53;4744861;29;118695;-73
2023/12/15 01:43:50;;;;;;;28.67;13.73;;;;;;;10.13;66.09;102756.66;4776527;29;120615;-71
2023/12/15 01:46:17;;;;;;;25.20;13.35;;;;;;;10.14;65.79;102757.53;4759399;29;124087;-72
2023/12/15 01:48:45;;;;;;;23.67;13.50;;;;;;;10.15;65.93;102759.25;4755610;29;124177;-72
2023/12/15 01:51:14;;;;;;;29.35;13.93;;;;;;;10.16;66.11;102766.31;4773330;29;120357;-72
2023/12/15 01:53:43;;;;;;;27.52;14.57;;;;;;;10.18;66.00;102759.22;4777234;29;120024;-71
2023/12/15 01:56:10;;;;;;;29.38;15.05;;;;;;;10.19;66.16;102766.28;4736345;29;125224;-72
2023/12/15 01:58:37;;;;;;;33.22;14.70;;;;;;;10.19;66.19;102766.28;4782350;29;124569;-72
2023/12/15 02:01:07;;;;;;;28.90;14.38;;;;;;;10.19;66.33;102771.59;4781047;29;119270;-72
2023/12/15 02:03:35;;;;;;;29.02;14.80;;;;;;;10.20;66.42;102778.63;4748857;29;119377;-72
2023/12/15 02:06:03;;;;;;;31.27;15.40;;;;;;;10.21;66.25;102780.38;4771688;29;124577;-71
2023/12/15 02:08:30;;;;;;;25.58;14.15;;;;;;;10.22;66.35;102778.59;4773730;29;123878;-72
2023/12/15 02:10:57;;;;;;;26.10;14.52;;;;;;;10.23;66.46;102783.88;4753557;29;119733;-71
2023/12/15 02:13:24;;;;;;;29.98;14.27;;;;;;;10.23;66.29;102781.25;4762975;29;119490;-71
2023/12/15 02:15:52;;;;;;;31.63;14.65;;;;;;;10.24;66.49;102775.03;4761085;29;125258;-72
2023/12/15 02:18:19;;;;;;;26.75;14.60;;;;;;;10.24;66.13;102775.03;4756971;29;122209;-71
2023/12/15 02:20:46;;;;;;;28.55;14.32;;;;;;;10.25;66.38;102787.41;4762070;29;119642;-72
2023/12/15 02:23:13;;;;;;;31.38;14.80;;;;;;;10.24;66.46;102772.38;4757915;29;120409;-72
2023/12/15 02:25:41;;;;;;;35.25;15.60;;;;;;;10.25;66.56;102774.16;4751301;29;125179;-72
2023/12/15 02:28:08;;;;;;;31.70;14.90;;;;;;;10.26;66.31;102783.84;4774105;29;123953;-72
2023/12/15 02:30:35;;;;;;;33.05;15.27;;;;;;;10.27;66.30;102790.91;4769515;29;120504;-71
2023/12/15 02:33:02;;;;;;;33.85;16.40;;;;;;;10.28;66.46;102792.66;4768743;29;119611;-72
2023/12/15 02:35:30;;;;;;;31.35;14.73;;;;;;;10.28;66.46;102797.97;4753446;29;124081;-71
2023/12/15 02:37:57;;;;;;;36.95;15.20;;;;;;;10.28;66.60;102808.56;4776272;29;125075;-71
2023/12/15 02:40:24;;;;;;;32.63;16.20;;;;;;;10.30;66.34;102812.09;4765607;29;120233;-72
2023/12/15 02:42:51;;;;;;;33.30;15.88;;;;;;;10.29;66.36;102810.28;4769681;29;120959;-72
2023/12/15 02:45:19;;;;;;;34.65;15.60;;;;;;;10.29;66.64;102818.22;4776604;29;124618;-72
2023/12/15 02:47:46;;;;;;;33.88;16.85;;;;;;;10.30;66.65;102827.97;4785685;29;123753;-71
2023/12/15 02:50:13;;;;;;;36.25;16.10;;;;;;;10.31;66.56;102828.84;4774441;29;117103;-72
2023/12/15 02:52:41;;;;;;;41.15;17.13;;;;;;;10.31;66.67;102827.06;4784264;29;119391;-71
2023/12/15 02:55:08;;;;;;;31.95;16.00;;;;;;;10.33;66.90;102827.06;4775718;29;122313;-70
2023/12/15 02:57:35;;;;;;;36.85;16.65;;;;;;;10.33;66.58;102825.28;4763175;29;125168;-71
2023/12/15 03:00:03;;;;;;;34.30;16.38;;;;;;;10.36;66.79;102823.47;4783741;29;119155;-71
2023/12/15 03:02:30;;;;;;;35.70;16.67;;;;;;;10.33;66.85;102833.22;4787190;29;120370;-71
2023/12/15 03:04:58;;;;;;;35.70;15.68;;;;;;;10.36;66.65;102831.44;4774365;29;124930;-71
2023/12/15 03:07:25;;;;;;;35.33;15.93;;;;;;;10.36;66.64;102826.13;4788421;29;124253;-71
2023/12/15 03:09:52;;;;;;;38.30;16.45;;;;;;;10.37;66.69;102833.19;4776622;29;119259;-72
2023/12/15 03:12:19;;;;;;;37.30;17.13;;;;;;;10.38;66.88;102840.22;4770435;29;118176;-72
2023/12/15 03:14:46;;;;;;;41.45;17.42;;;;;;;10.38;66.93;102837.59;4755366;29;124880;-72
2023/12/15 03:17:16;;;;;;;36.70;17.15;;;;;;;10.38;66.93;102841.13;4760625;29;124467;-72
2023/12/15 03:19:43;;;;;;;33.00;16.30;;;;;;;10.39;67.00;102842.00;4753154;29;120096;-72
2023/12/15 03:22:10;;;;;;;37.72;16.23;;;;;;;10.39;67.00;102842.00;4757189;29;118772;-72
2023/12/15 03:24:37;;;;;;;34.05;16.02;;;;;;;10.41;66.77;102845.50;4752431;29;125263;-72
2023/12/15 03:27:04;;;;;;;30.27;16.25;;;;;;;10.42;67.05;102852.56;4758434;29;122408;-71
2023/12/15 03:29:31;;;;;;;37.67;16.77;;;;;;;10.43;66.99;102859.59;4772759;29;120047;-72
2023/12/15 03:31:59;;;;;;;33.85;16.70;;;;;;;10.45;67.10;102868.41;4773141;29;119751;-71
2023/12/15 03:34:26;;;;;;;35.42;15.77;;;;;;;10.47;66.96;102866.59;4743073;29;125409;-72
2023/12/15 03:36:53;;;;;;;40.70;17.08;;;;;;;10.47;67.00;102871.91;4746586;29;124747;-71
2023/12/15 03:39:20;;;;;;;36.00;16.98;;;;;;;10.47;66.82;102885.16;4776537;29;119943;-72
2023/12/15 03:41:47;;;;;;;37.42;17.33;;;;;;;10.48;66.97;102889.56;4758327;29;120821;-72
2023/12/15 03:44:14;;;;;;;39.35;17.33;;;;;;;10.48;66.88;102886.94;4773708;29;123861;-72
2023/12/15 03:46:41;;;;;;;38.90;17.33;;;;;;;10.49;66.93;102888.66;4774198;29;124129;-72
2023/12/15 03:49:09;;;;;;;39.20;17.25;;;;;;;10.49;67.09;102896.59;4773483;29;119673;-72
2023/12/15 03:51:36;;;;;;;40.67;16.52;;;;;;;10.50;66.95;102893.09;4765342;29;118797;-72
2023/12/15 03:54:04;;;;;;;44.42;17.27;;;;;;;10.51;67.32;102894.84;4777154;29;124603;-72
2023/12/15 03:56:31;;;;;;;43.60;17.05;;;;;;;10.52;67.01;102897.47;4757749;29;125620;-72
2023/12/15 03:59:00;;;;;;;39.90;17.83;;;;;;;10.55;67.02;102900.97;4770091;29;119805;-72
2023/12/15 04:01:29;;;;;;;48.05;19.08;;;;;;;10.55;67.10;102891.25;4754790;29;118811;-72
2023/12/15 04:03:57;;;;;;;44.97;18.23;;;;;;;10.53;67.22;102898.34;4769542;29;125850;-72
2023/12/15 04:06:24;;;;;;;40.20;18.60;;;;;;;10.55;66.94;102896.56;4772589;29;123552;-72
2023/12/15 04:08:52;;;;;;;47.95;18.60;;;;;;;10.54;67.25;102889.50;4753583;29;120109;-72
2023/12/15 04:11:19;;;;;;;39.80;17.05;;;;;;;10.55;67.30;102891.25;4752339;29;119046;-72
2023/12/15 04:13:46;;;;;;;49.67;18.80;;;;;;;10.56;67.12;102893.00;4757245;29;124922;-72
2023/12/15 04:16:13;;;;;;;42.15;18.98;;;;;;;10.57;67.16;102889.47;4758995;29;124892;-72
2023/12/15 04:18:41;;;;;;;46.47;18.35;;;;;;;10.57;67.24;102910.66;4776320;29;120397;-72
2023/12/15 04:21:08;;;;;;;44.45;18.20;;;;;;;10.58;67.24;102916.84;4760899;29;120008;-72
2023/12/15 04:23:35;;;;;;;44.78;18.67;;;;;;;10.59;67.18;102919.47;4756304;29;124791;-72
2023/12/15 04:26:03;;;;;;;48.15;18.10;;;;;;;10.59;67.36;102913.31;4766985;29;124049;-72
2023/12/15 04:28:30;;;;;;;42.85;18.30;;;;;;;10.60;67.28;102921.22;4777030;29;119785;-72
2023/12/15 04:30:57;;;;;;;48.10;18.98;;;;;;;10.60;67.30;102915.91;4760431;29;120712;-72
2023/12/15 04:33:24;;;;;;;46.53;19.70;;;;;;;10.59;67.46;102924.78;4760075;29;124729;-72
2023/12/15 04:35:51;;;;;;;45.58;18.77;;;;;;;10.60;67.19;102926.50;4777393;29;123732;-72
2023/12/15 04:38:18;;;;;;;48.17;19.38;;;;;;;10.61;67.36;102917.69;4760140;29;120063;-72
2023/12/15 04:40:46;;;;;;;49.95;19.33;;;;;;;10.60;67.38;102937.09;4763509;29;118901;-72
2023/12/15 04:43:13;;;;;;;49.55;19.30;;;;;;;10.62;67.36;102940.63;4770913;29;124428;-72
2023/12/15 04:45:40;;;;;;;47.22;19.73;;;;;;;10.64;67.33;102943.25;4751727;29;123387;-72
2023/12/15 04:48:07;;;;;;;53.38;20.05;;;;;;;10.63;67.35;102937.09;4772168;29;119634;-72
2023/12/15 04:50:35;;;;;;;52.72;19.70;;;;;;;10.63;67.41;102937.09;4765539;29;119315;-72
2023/12/15 04:53:04;;;;;;;52.58;19.88;;;;;;;10.63;67.42;102944.16;4752338;29;124708;-72
2023/12/15 04:55:32;;;;;;;55.97;19.75;;;;;;;10.64;67.38;102938.84;4752539;29;124935;-72
2023/12/15 04:58:00;;;;;;;50.00;19.70;;;;;;;10.65;67.46;102945.88;4764472;29;119372;-72
2023/12/15 05:00:27;;;;;;;47.05;19.35;;;;;;;10.64;67.49;102944.16;4760276;29;120040;-72
2023/12/15 05:02:55;;;;;;;50.45;19.85;;;;;;;10.65;67.39;102945.03;4758957;29;123936;-72
2023/12/15 05:05:22;;;;;;;51.22;19.98;;;;;;;10.67;67.45;102949.41;4754374;29;125009;-72
2023/12/15 05:07:49;;;;;;;53.42;20.70;;;;;;;10.68;67.44;102951.16;4772999;29;120761;-72
2023/12/15 05:10:16;;;;;;;52.10;20.80;;;;;;;10.70;67.49;102949.38;4772001;29;119354;-72
2023/12/15 05:12:43;;;;;;;53.85;20.88;;;;;;;10.71;67.56;102947.59;4768902;29;124003;-72
2023/12/15 05:15:11;;;;;;;48.10;19.77;;;;;;;10.70;67.57;102957.31;4746167;29;123604;-72
2023/12/15 05:17:38;;;;;;;62.80;19.95;;;;;;;10.71;67.20;102956.41;4773002;29;119699;-72
2023/12/15 05:20:08;;;;;;;53.05;19.80;;;;;;;10.73;67.64;102968.78;4770379;29;119431;-72
2023/12/15 05:22:35;;;;;;;58.33;20.70;;;;;;;10.74;67.59;102959.91;4758610;29;123433;-72
2023/12/15 05:25:02;;;;;;;53.70;20.27;;;;;;;10.75;67.73;102967.84;4774722;29;124067;-72
2023/12/15 05:27:29;;;;;;;57.13;20.67;;;;;;;10.76;67.46;102968.75;4777609;29;119464;-72
2023/12/15 05:29:57;;;;;;;59.88;20.63;;;;;;;10.75;67.61;102967.84;4764347;29;119106;-72
2023/12/15 05:32:24;;;;;;;56.13;20.38;;;;;;;10.77;67.45;102973.16;4773073;29;124462;-72
2023/12/15 05:34:51;;;;;;;55.65;20.88;;;;;;;10.77;67.63;102981.97;4772031;29;123673;-72
2023/12/15 05:37:18;;;;;;;54.88;20.60;;;;;;;10.78;67.60;102982.88;4775594;29;119425;-72
2023/12/15 05:39:46;;;;;;;55.88;21.25;;;;;;;10.79;67.51;102995.22;4766645;29;119479;-72
2023/12/15 05:42:13;;;;;;;53.83;19.63;;;;;;;10.80;67.73;103002.28;4769882;29;124101;-72
2023/12/15 05:44:40;;;;;;;61.08;21.88;;;;;;;10.80;67.55;103007.59;4759222;29;124917;-72
2023/12/15 05:47:08;;;;;;;54.88;20.52;;;;;;;10.81;67.61;103012.88;4773531;29;119341;-72
2023/12/15 05:49:44;;;;;;;50.58;19.77;;;;;;;10.81;67.68;103001.38;4757303;29;118595;-72
2023/12/15 05:52:14;;;;;;;56.22;20.83;;;;;;;10.81;67.58;103004.03;4750415;29;125285;-71
2023/12/15 05:54:41;;;;;;;55.22;20.58;;;;;;;10.82;67.48;103003.13;4755577;29;122921;-71
2023/12/15 05:57:08;;;;;;;54.63;20.23;;;;;;;10.83;67.51;103007.53;4770895;29;121450;-71
2023/12/15 05:59:40;;;;;;;57.95;20.75;;;;;;;10.83;67.53;103007.53;4775691;29;121018;-71
2023/12/15 06:02:09;;;;;;;58.03;20.92;;;;;;;10.82;67.54;102996.06;4757305;29;123987;-71
2023/12/15 06:04:36;;;;;;;58.25;21.38;;;;;;;10.82;67.69;103000.50;4772927;29;124135;-71
2023/12/15 06:07:03;;;;;;;60.25;20.90;;;;;;;10.84;67.61;102998.69;4773296;29;119330;-71
2023/12/15 06:09:31;;;;;;;53.35;20.77;;;;;;;10.84;68.03;102999.56;4758777;29;119413;-71
2023/12/15 06:12:02;;;;;;;60.67;20.70;;;;;;;10.85;67.84;102995.13;4753922;29;124568;-71
2023/12/15 06:14:29;;;;;;;39.63;14.27;;;;;;;10.86;67.65;103004.84;4770901;29;124349;-71
2023/12/15 06:16:56;;;;;;;54.38;21.45;;;;;;;10.87;68.18;103014.56;4769984;29;118810;-71
2023/12/15 06:19:24;;;;;;;56.55;21.23;;;;;;;10.88;67.74;103022.50;4737236;29;119850;-71
2023/12/15 06:21:51;;;;;;;59.78;20.65;;;;;;;10.91;67.69;103016.28;4772224;29;124627;-72
2023/12/15 06:24:19;;;;;;;55.88;21.75;;;;;;;10.91;67.67;103016.28;4755435;29;123690;-71
2023/12/15 06:26:46;;;;;;;56.85;20.52;;;;;;;10.91;67.83;103016.28;4772318;29;120338;-71
2023/12/15 06:29:13;;;;;;;57.53;20.95;;;;;;;10.91;67.65;103021.59;4779105;29;119033;-72
2023/12/15 06:31:48;;;;;;;55.42;20.20;;;;;;;10.93;67.91;103025.09;4776030;29;124124;-71
2023/12/15 06:34:16;;;;;;;53.15;20.15;;;;;;;10.94;67.78;103037.44;4757942;29;124304;-71
2023/12/15 06:36:43;;;;;;;54.47;21.30;;;;;;;10.96;67.68;103040.09;4757591;29;120577;-72
2023/12/15 06:39:10;;;;;;;58.35;21.25;;;;;;;10.96;67.79;103048.91;4771919;29;118978;-71
2023/12/15 06:41:38;;;;;;;56.80;20.75;;;;;;;10.97;67.77;103041.84;4772066;29;124540;-71
2023/12/15 06:44:06;;;;;;;57.72;20.55;;;;;;;10.97;67.85;103053.34;4776420;29;123298;-72
2023/12/15 06:46:38;;;;;;;53.15;20.10;;;;;;;10.98;67.83;103049.81;4771801;29;120722;-72
2023/12/15 06:49:05;;;;;;;54.13;21.05;;;;;;;10.98;67.81;103055.09;4771169;29;120640;-72
2023/12/15 06:51:33;;;;;;;60.17;21.52;;;;;;;10.99;67.79;103040.94;4769083;29;123947;-71
2023/12/15 06:54:00;;;;;;;53.25;20.38;;;;;;;11.02;67.84;103045.31;4754193;29;124470;-71
2023/12/15 06:56:27;;;;;;;52.60;20.20;;;;;;;11.03;67.60;103050.59;4772430;29;118869;-72
2023/12/15 06:58:54;;;;;;;60.88;21.48;;;;;;;11.03;67.65;103053.25;4751786;29;119639;-71
2023/12/15 07:01:21;;;;;;;53.17;21.58;;;;;;;11.06;67.74;103053.22;4769806;29;124848;-71
2023/12/15 07:03:49;;;;;;;56.67;21.27;;;;;;;11.06;67.79;103066.50;4750932;29;125408;-71
2023/12/15 07:06:18;;;;;;;54.58;21.02;;;;;;;11.06;67.66;103074.44;4772437;29;119093;-71
2023/12/15 07:08:50;;;;;;;63.25;22.67;;;;;;;11.07;67.79;103080.63;4742672;29;119553;-72
2023/12/15 07:11:18;;;;;;;59.88;22.20;;;;;;;11.09;67.66;103090.34;4756450;29;124982;-72
2023/12/15 07:13:45;;;;;;;56.08;20.02;;;;;;;11.09;67.78;103085.03;4760468;29;123678;-72
2023/12/15 07:16:13;;;;;;;54.83;19.45;;;;;;;11.08;67.68;103093.00;4772673;29;119195;-74
2023/12/15 07:18:40;;;;;;;49.50;19.10;;;;;;;11.08;67.77;103088.56;4766345;29;119488;-74
2023/12/15 07:21:07;;;;;;;50.25;19.85;;;;;;;11.09;67.60;103085.03;4769334;29;123918;-72
2023/12/15 07:23:35;;;;;;;47.60;18.73;;;;;;;11.10;67.77;103092.06;4774531;29;124468;-71
2023/12/15 07:26:04;;;;;;;54.28;18.95;;;;;;;11.10;67.65;103092.06;4759357;29;120358;-72
2023/12/15 07:28:31;;;;;;;47.47;18.95;;;;;;;11.10;67.56;103102.69;4781459;29;118769;-71
2023/12/15 07:30:58;;;;;;;51.35;20.35;;;;;;;11.10;67.75;103107.97;4793975;29;123869;-71
2023/12/15 07:33:25;;;;;;;43.65;16.00;;;;;;;11.09;67.48;103106.25;4793795;29;122396;-72
2023/12/15 07:35:52;;;;;;;40.53;12.38;;;;;;;11.10;67.72;103110.63;4787390;29;120682;-71
2023/12/15 07:38:20;;;;;;;31.98;12.05;;;;;;;11.13;67.75;103111.50;4795007;29;119115;-71
2023/12/15 07:40:47;;;;;;;37.97;11.27;;;;;;;11.13;67.68;103117.66;4775210;29;123824;-71
2023/12/15 07:43:14;;;;;;;29.45;10.35;;;;;;;11.15;67.61;103120.31;4761050;29;122344;-72
2023/12/15 07:45:41;;;;;;;37.95;11.85;;;;;;;11.17;67.66;103129.13;4787741;29;120132;-72
2023/12/15 07:48:08;;;;;;;36.30;12.95;;;;;;;11.17;67.67;103123.81;4766790;29;118892;-72
2023/12/15 07:50:35;;;;;;;36.45;12.98;;;;;;;11.19;67.68;103127.34;4763014;29;122076;-72
2023/12/15 07:53:03;;;;;;;42.53;14.55;;;;;;;11.20;67.56;103129.09;4772245;29;125215;-72
2023/12/15 07:55:30;;;;;;;49.33;13.93;;;;;;;11.21;67.76;103130.88;4773305;29;119052;-72
2023/12/15 07:57:57;;;;;;;37.88;13.07;;;;;;;11.22;67.63;103135.28;4773189;29;119024;-71
2023/12/15 08:00:24;;;;;;;42.08;13.35;;;;;;;11.21;67.68;103146.78;4766649;29;124679;-71
2023/12/15 08:02:52;;;;;;;40.22;13.98;;;;;;;11.24;67.65;103146.75;4764498;29;123846;-71
2023/12/15 08:05:19;;;;;;;36.40;13.57;;;;;;;11.23;67.75;103145.88;4768225;29;119257;-71
2023/12/15 08:07:46;;;;;;;42.13;14.32;;;;;;;11.26;67.69;103152.91;4740914;29;120064;-72
2023/12/15 08:10:13;;;;;;;42.15;14.43;;;;;;;11.27;67.63;103149.38;4757091;29;125477;-72
2023/12/15 08:12:40;;;;;;;42.58;14.30;;;;;;;11.28;67.63;103153.75;4763414;29;124094;-72
2023/12/15 08:15:08;;;;;;;38.63;13.85;;;;;;;11.29;67.52;103150.22;4727973;29;118389;-72
2023/12/15 08:17:35;;;;;;;39.78;13.55;;;;;;;11.30;67.51;103162.59;4755403;29;118823;-72
2023/12/15 08:20:04;;;;;;;45.40;14.23;;;;;;;11.30;67.47;103173.19;4748886;29;123928;-72
2023/12/15 08:22:31;;;;;;;41.65;13.93;;;;;;;11.30;67.70;103178.50;4774647;29;123969;-72
2023/12/15 08:24:58;;;;;;;39.80;13.80;;;;;;;11.31;67.55;103185.56;4744834;29;120603;-72
2023/12/15 08:27:25;;;;;;;39.88;14.38;;;;;;;11.32;67.67;103191.75;4756363;29;121020;-72
2023/12/15 08:29:56;;;;;;;38.25;13.65;;;;;;;11.34;67.68;103201.47;4764670;29;124718;-72
2023/12/15 08:32:24;;;;;;;37.67;13.70;;;;;;;11.35;67.65;103192.59;4758773;29;123757;-72
2023/12/15 08:34:51;;;;;;;44.50;14.40;;;;;;;11.37;67.61;103200.56;4749637;29;118833;-72
2023/12/15 08:37:18;;;;;;;42.10;13.95;;;;;;;11.37;67.64;103206.72;4783645;29;119905;-72
2023/12/15 08:39:46;;;;;;;39.92;13.75;;;;;;;11.37;67.52;103212.03;4777091;29;123804;-72
2023/12/15 08:42:13;;;;;;;38.03;13.45;;;;;;;11.38;67.62;103219.13;4735542;29;125167;-72
2023/12/15 08:44:43;;;;;;;34.00;13.45;;;;;;;11.39;67.66;103210.25;4754275;29;118280;-72
2023/12/15 08:47:11;;;;;;;38.55;13.60;;;;;;;11.40;67.60;103212.03;4766437;29;119567;-72
2023/12/15 08:49:38;;;;;;;42.83;14.57;;;;;;;11.41;67.64;103227.03;4771785;29;123850;-72
2023/12/15 08:52:06;;;;;;;38.90;13.50;;;;;;;11.43;67.58;103233.22;4746372;29;124066;-72
2023/12/15 08:54:33;;;;;;;43.03;14.15;;;;;;;11.44;67.58;103239.41;4763771;29;120441;-72
2023/12/15 08:57:00;;;;;;;38.30;13.63;;;;;;;11.45;67.69;103242.06;4748990;29;119019;-72
2023/12/15 08:59:27;;;;;;;39.30;14.25;;;;;;;11.47;67.76;103245.56;4773451;29;124196;-72
2023/12/15 09:01:54;;;;;;;36.80;13.65;;;;;;;11.48;67.56;103241.13;4748499;29;123276;-72
2023/12/15 09:04:22;;;;;;;41.40;13.88;;;;;;;11.49;67.54;103249.06;4777664;29;119403;-72
2023/12/15 09:06:50;;;;;;;41.10;14.55;;;;;;;11.49;67.53;103243.78;4776506;29;119618;-72
2023/12/15 09:09:21;;;;;;;38.53;13.88;;;;;;;11.53;67.51;103249.03;4761784;29;123291;-72
2023/12/15 09:11:49;;;;;;;34.63;13.02;;;;;;;11.54;67.67;103250.81;4762856;29;126284;-72
2023/12/15 09:14:17;;;;;;;41.03;13.73;;;;;;;11.56;67.56;103254.31;4778084;29;120088;-72
2023/12/15 09:16:44;;;;;;;36.83;13.90;;;;;;;11.58;67.70;103252.53;4768643;29;123657;-72
2023/12/15 09:19:12;;;;;;;41.95;13.90;;;;;;;11.61;67.52;103257.81;4777490;29;124195;-72
2023/12/15 09:21:39;;;;;;;43.38;13.60;;;;;;;11.62;67.54;103260.47;4749565;29;125375;-72
2023/12/15 09:24:06;;;;;;;36.97;12.73;;;;;;;11.65;67.69;103275.47;4756235;29;120010;-72
2023/12/15 09:26:38;;;;;;;42.33;13.63;;;;;;;11.66;67.74;103271.91;4756685;29;120164;-72
2023/12/15 09:29:06;;;;;;;40.00;14.20;;;;;;;11.69;67.65;103282.50;4773547;29;124195;-72
2023/12/15 09:31:33;;;;;;;40.63;13.40;;;;;;;11.70;67.77;103278.94;4761204;29;124024;-72
2023/12/15 09:34:01;;;;;;;37.97;13.80;;;;;;;11.73;67.55;103289.53;4772817;29;118667;-72
2023/12/15 09:36:28;;;;;;;39.75;13.75;;;;;;;11.74;67.60;103291.28;4741786;29;121200;-72
2023/12/15 09:38:56;;;;;;;37.85;14.00;;;;;;;11.76;67.64;103294.81;4756682;29;124531;-72
2023/12/15 09:41:23;;;;;;;37.60;13.75;;;;;;;11.78;67.60;103308.94;4756572;29;124130;-72
2023/12/15 09:43:50;;;;;;;43.25;14.10;;;;;;;11.81;67.75;103316.88;4756620;29;119351;-72
2023/12/15 09:46:20;;;;;;;46.28;14.13;;;;;;;11.83;67.53;103317.75;4774356;29;119130;-72
2023/12/15 09:48:49;;;;;;;38.53;13.32;;;;;;;11.85;67.76;103326.56;4760108;29;125026;-72
2023/12/15 09:51:25;;;;;;;44.35;14.20;;;;;;;11.87;67.62;103324.78;4757089;29;124740;-72
2023/12/15 09:53:53;;;;;;;38.30;13.65;;;;;;;11.88;67.54;103331.88;4751753;29;119600;-72
2023/12/15 09:56:20;;;;;;;42.78;14.82;;;;;;;11.91;67.50;103335.41;4749395;29;118267;-72
2023/12/15 09:58:48;;;;;;;38.50;13.43;;;;;;;11.92;67.54;103348.66;4769348;29;125103;-72
2023/12/15 10:01:15;;;;;;;37.13;12.63;;;;;;;11.95;67.39;103353.06;4770316;29;123996;-72
2023/12/15 10:03:42;;;;;;;39.38;13.82;;;;;;;11.96;67.61;103344.19;4753731;29;119990;-72
2023/12/15 10:06:09;;;;;;;34.88;12.85;;;;;;;11.99;67.76;103344.16;4778397;29;120157;-72
2023/12/15 10:08:42;;;;;;;39.08;13.02;;;;;;;12.00;67.49;103345.94;4755037;29;124884;-72
2023/12/15 10:11:29;;;;;;;36.03;13.38;;;;;;;12.03;67.68;103356.50;4746538;29;125216;-72
2023/12/15 10:13:57;;;;;;;33.03;12.75;;;;;;;12.06;67.57;103351.19;4758760;29;119541;-72
2023/12/15 10:16:27;;;;;;;40.65;13.18;;;;;;;12.08;67.58;103365.31;4758337;29;118988;-72
2023/12/15 10:18:54;;;;;;;32.40;12.45;;;;;;;12.10;67.54;103360.88;4759467;29;124551;-72
2023/12/15 10:21:22;;;;;;;41.25;13.85;;;;;;;12.12;67.50;103372.34;4777765;29;123593;-73
2023/12/15 10:23:52;;;;;;;38.55;13.75;;;;;;;12.13;67.43;103374.13;4771574;29;118414;-72
2023/12/15 10:26:20;;;;;;;38.40;12.98;;;;;;;12.13;67.43;103374.13;4765205;29;119800;-72
2023/12/15 10:28:47;;;;;;;34.70;12.55;;;;;;;12.15;67.39;103376.75;4763408;29;123206;-71
2023/12/15 10:31:14;;;;;;;34.22;12.60;;;;;;;12.16;67.45;103376.72;4753276;29;124754;-73
2023/12/15 10:33:43;;;;;;;36.17;12.63;;;;;;;12.17;67.46;103381.16;4743649;29;118617;-73
2023/12/15 10:36:12;;;;;;;37.67;12.65;;;;;;;12.17;67.29;103381.16;4750399;29;119919;-72
2023/12/15 10:38:40;;;;;;;39.58;12.70;;;;;;;12.18;67.46;103382.91;4757384;29;124081;-73
2023/12/15 10:41:08;;;;;;;31.55;12.00;;;;;;;12.19;67.39;103392.66;4761031;29;124257;-73
2023/12/15 10:43:36;;;;;;;32.65;11.75;;;;;;;12.23;67.40;103412.97;4768540;29;119017;-73
2023/12/15 10:46:07;;;;;;;33.05;12.63;;;;;;;12.23;67.28;103412.97;4752124;29;118668;-72
2023/12/15 10:48:38;;;;;;;31.13;11.13;;;;;;;12.23;67.31;103418.28;4739991;29;125252;-73
2023/12/15 10:51:07;;;;;;;29.98;11.77;;;;;;;12.26;67.41;103423.59;4775717;29;124134;-73
2023/12/15 10:53:35;;;;;;;30.98;11.52;;;;;;;12.29;67.38;103427.09;4763525;29;120511;-72
2023/12/15 10:56:03;;;;;;;34.42;11.88;;;;;;;12.31;67.18;103425.31;4746233;29;120974;-73
2023/12/15 10:58:30;;;;;;;32.08;11.10;;;;;;;12.31;67.32;103415.53;4766923;29;124706;-73
2023/12/15 11:00:58;;;;;;;34.30;11.35;;;;;;;12.33;67.24;103407.56;4768241;29;124424;-73
2023/12/15 11:03:26;;;;;;;32.08;12.00;;;;;;;12.34;67.27;103414.63;4748025;29;118754;-73